Time;durP1;ratioP1;P1;durP2;ratioP2;P2;SDS_P1;SDS_P2;PMS_P1;PMS_P2;Temp;Humidity;BMP_temperature;BMP_pressure;BME280_temperature;BME280_humidity;BME280_pressure;Samples;Min_cycle;Max_cycle;Signal;HPM_P1;HPM_P2
2023/01/08 00:01:15;;;;;;;11.70;6.70;;;;;;;-2.90;78.25;99759.61;102224;1298;73089;-24
2023/01/08 00:03:43;;;;;;;12.10;7.00;;;;;;;-3.15;79.10;99754.86;102369;1299;62080;-24
2023/01/08 00:06:12;;;;;;;14.30;7.80;;;;;;;-3.40;79.84;99756.38;102378;1299;62856;-24
2023/01/08 00:08:39;;;;;;;10.30;5.00;;;;;;;-3.40;80.54;99760.61;102011;1283;75829;-25
2023/01/08 00:11:06;;;;;;;8.80;5.60;;;;;;;-2.85;79.86;99755.95;102055;1292;75648;-24
2023/01/08 00:13:33;;;;;;;13.90;5.30;;;;;;;-2.58;78.58;99753.33;102114;1301;75229;-25
2023/01/08 00:16:05;;;;;;;12.50;7.80;;;;;;;-2.70;78.25;99758.80;102069;1291;62012;-25
2023/01/08 00:18:33;;;;;;;13.40;7.90;;;;;;;-2.94;78.42;99763.06;102268;1294;61893;-24
2023/01/08 00:21:00;;;;;;;9.50;6.10;;;;;;;-3.20;79.28;99762.23;102228;1295;76261;-25
2023/01/08 00:23:27;;;;;;;8.70;5.10;;;;;;;-3.44;80.04;99765.42;102294;1295;76711;-24
2023/01/08 00:25:54;;;;;;;8.00;4.70;;;;;;;-3.28;80.81;99767.77;102279;1299;74130;-24
2023/01/08 00:28:21;;;;;;;6.90;4.90;;;;;;;-2.71;79.90;99764.92;102337;1299;61160;-24
2023/01/08 00:30:48;;;;;;;10.50;6.10;;;;;;;-2.56;78.38;99767.23;102289;1294;62729;-24
2023/01/08 00:33:15;;;;;;;15.00;6.30;;;;;;;-2.73;78.49;99763.93;102324;1294;76474;-25
2023/01/08 00:35:42;;;;;;;12.10;6.20;;;;;;;-2.97;78.98;99766.32;102348;1299;75696;-25
2023/01/08 00:38:08;;;;;;;11.80;6.90;;;;;;;-3.22;79.70;99764.46;102303;1294;74929;-24
2023/01/08 00:40:36;;;;;;;11.60;6.90;;;;;;;-3.40;80.56;99759.10;102149;1291;61648;-29
2023/01/08 00:43:03;;;;;;;10.70;5.40;;;;;;;-3.31;80.98;99756.42;102026;1301;62817;-28
2023/01/08 00:45:30;;;;;;;9.50;5.40;;;;;;;-2.78;79.84;99749.55;102109;1291;76547;-24
2023/01/08 00:47:58;;;;;;;14.40;6.30;;;;;;;-2.56;79.01;99754.66;102232;1298;76572;-24
2023/01/08 00:50:25;;;;;;;12.30;5.20;;;;;;;-2.66;78.61;99749.55;102291;1294;74182;-24
2023/01/08 00:52:52;;;;;;;22.40;7.00;;;;;;;-2.90;78.73;99751.95;102189;1301;61768;-25
2023/01/08 00:55:19;;;;;;;11.30;6.20;;;;;;;-3.10;79.51;99755.13;102320;1295;61030;-24
2023/01/08 00:57:46;;;;;;;8.70;5.50;;;;;;;-3.34;80.15;99753.23;102239;1295;76211;-24
2023/01/08 01:00:14;;;;;;;11.20;6.60;;;;;;;-3.25;80.73;99755.00;102297;1299;75696;-24
2023/01/08 01:02:41;;;;;;;13.20;7.00;;;;;;;-2.78;80.01;99751.60;102345;1294;75179;-25
2023/01/08 01:05:09;;;;;;;14.10;5.50;;;;;;;-2.68;78.82;99749.24;102322;1299;61162;-24
2023/01/08 01:07:36;;;;;;;11.30;5.80;;;;;;;-2.81;78.83;99758.96;102222;1286;61519;-24
2023/01/08 01:10:04;;;;;;;8.10;4.80;;;;;;;-2.97;79.17;99762.92;102304;1299;75993;-24
2023/01/08 01:12:31;;;;;;;11.40;5.40;;;;;;;-3.18;79.70;99762.55;102414;1291;76817;-24
2023/01/08 01:14:58;;;;;;;12.10;7.10;;;;;;;-3.36;80.19;99760.73;102316;1302;75227;-24
2023/01/08 01:17:25;;;;;;;13.00;5.90;;;;;;;-3.07;80.33;99757.64;102227;1294;63431;-24
2023/01/08 01:19:52;;;;;;;16.30;6.70;;;;;;;-2.51;78.96;99752.03;102312;1292;62599;-25
2023/01/08 01:22:19;;;;;;;10.00;5.60;;;;;;;-2.46;77.82;99750.59;102323;1295;74248;-24
2023/01/08 01:24:46;;;;;;;14.10;5.40;;;;;;;-2.60;77.80;99747.41;102298;1301;76794;-24
2023/01/08 01:27:13;;;;;;;11.30;6.20;;;;;;;-2.90;78.37;99746.33;102298;1302;75210;-24
2023/01/08 01:29:40;;;;;;;10.50;4.90;;;;;;;-3.18;79.41;99749.29;102302;1299;61136;-25
2023/01/08 01:32:07;;;;;;;21.80;5.20;;;;;;;-3.40;80.11;99750.09;102347;1298;61495;-24
2023/01/08 01:34:34;;;;;;;12.60;7.30;;;;;;;-3.24;80.57;99753.45;102356;1292;75482;-24
2023/01/08 01:37:02;;;;;;;12.40;5.80;;;;;;;-2.72;79.33;99748.81;102185;1301;75842;-24
2023/01/08 01:39:29;;;;;;;6.80;5.10;;;;;;;-2.64;78.41;99748.16;102347;1294;75238;-24
2023/01/08 01:41:57;;;;;;;10.80;5.80;;;;;;;-2.82;78.69;99746.05;102328;1298;61225;-24
2023/01/08 01:44:41;;;;;;;10.80;6.70;;;;;;;-3.07;79.12;99743.88;102351;1298;62761;-25
2023/01/08 01:47:18;;;;;;;8.20;5.60;;;;;;;-3.35;80.22;99737.29;102160;1294;76514;-24
2023/01/08 01:49:56;;;;;;;12.30;5.60;;;;;;;-3.52;80.74;99738.02;102208;1283;75800;-24
2023/01/08 01:52:23;;;;;;;15.00;7.00;;;;;;;-3.18;80.86;99737.41;102241;1302;74165;-24
2023/01/08 01:54:50;;;;;;;8.30;6.40;;;;;;;-2.79;79.77;99731.58;102158;1299;62054;-25
2023/01/08 01:57:17;;;;;;;10.20;5.40;;;;;;;-2.84;79.18;99737.77;102233;1297;62576;-24
2023/01/08 01:59:44;;;;;;;7.90;4.50;;;;;;;-2.99;79.21;99737.98;102109;1299;76442;-24
2023/01/08 02:02:12;;;;;;;13.60;6.40;;;;;;;-3.15;80.00;99739.58;102318;1299;74755;-24
2023/01/08 02:04:39;;;;;;;12.80;6.20;;;;;;;-3.34;80.12;99737.45;102363;1291;75064;-24
2023/01/08 02:07:12;;;;;;;10.20;5.60;;;;;;;-3.48;80.92;99734.06;102263;1299;61116;-24
2023/01/08 02:09:47;;;;;;;12.90;6.70;;;;;;;-3.03;80.55;99737.52;102085;1297;62721;-24
2023/01/08 02:12:25;;;;;;;6.60;4.40;;;;;;;-2.43;79.13;99736.75;102191;1301;76402;-24
2023/01/08 02:15:17;;;;;;;10.20;5.70;;;;;;;-2.47;78.09;99731.22;102027;1287;77350;-25
2023/01/08 02:18:12;;;;;;;10.10;5.70;;;;;;;-2.76;78.12;99735.27;102313;1299;74984;-27
2023/01/08 02:21:02;;;;;;;12.40;6.90;;;;;;;-3.05;78.71;99742.14;102037;1298;62060;-26
2023/01/08 02:23:59;;;;;;;8.30;5.40;;;;;;;-3.28;79.57;99734.81;102102;1294;61522;-30
2023/01/08 02:26:34;;;;;;;8.50;5.60;;;;;;;-3.43;80.42;99737.05;102167;1299;76535;-26
2023/01/08 02:29:04;;;;;;;8.90;5.40;;;;;;;-2.91;80.13;99736.69;102308;1291;75766;-26
2023/01/08 02:31:31;;;;;;;8.40;5.00;;;;;;;-2.53;78.94;99734.04;102008;1294;76526;-26
2023/01/08 02:33:58;;;;;;;10.30;6.00;;;;;;;-2.56;78.28;99729.83;102201;1301;61795;-26
2023/01/08 02:36:35;;;;;;;7.70;5.00;;;;;;;-2.77;78.31;99734.25;102297;1294;62882;-24
2023/01/08 02:39:08;;;;;;;7.40;4.90;;;;;;;-3.09;79.09;99740.85;102298;1301;75075;-25
2023/01/08 02:41:39;;;;;;;11.70;6.10;;;;;;;-3.33;79.96;99746.10;102047;1303;76960;-26
2023/01/08 02:44:07;;;;;;;6.00;3.60;;;;;;;-3.47;80.58;99743.73;102210;1302;74993;-24
2023/01/08 02:46:34;;;;;;;8.40;3.90;;;;;;;-3.17;80.72;99742.81;102266;1298;62598;-24
2023/01/08 02:49:03;;;;;;;5.00;3.10;;;;;;;-2.61;79.45;99741.31;102328;1299;61853;-24
2023/01/08 02:51:43;;;;;;;9.20;6.00;;;;;;;-2.49;78.32;99744.02;102187;1302;75267;-24
2023/01/08 02:54:12;;;;;;;12.10;6.20;;;;;;;-2.65;78.21;99745.13;102376;1297;75905;-24
2023/01/08 02:56:44;;;;;;;15.80;6.50;;;;;;;-2.88;78.77;99741.04;102284;1302;75346;-24
2023/01/08 02:59:12;;;;;;;14.20;6.70;;;;;;;-3.12;79.37;99741.06;102281;1299;61193;-24
2023/01/08 03:01:39;;;;;;;6.70;4.70;;;;;;;-3.31;80.15;99739.79;102186;1299;61988;-24
2023/01/08 03:04:09;;;;;;;16.90;7.30;;;;;;;-3.16;80.57;99740.26;102293;1299;76111;-24
2023/01/08 03:06:36;;;;;;;18.00;8.90;;;;;;;-2.65;79.35;99737.45;102178;1299;76513;-24
2023/01/08 03:09:04;;;;;;;8.70;4.80;;;;;;;-2.55;78.39;99736.95;102167;1294;74225;-24
2023/01/08 03:11:39;;;;;;;14.50;8.20;;;;;;;-2.69;78.54;99736.50;102289;1299;61140;-24
2023/01/08 03:14:56;;;;;;;15.80;8.80;;;;;;;-2.91;78.90;99744.14;102297;1299;61549;-24
2023/01/08 03:17:25;;;;;;;17.80;6.90;;;;;;;-3.22;79.69;99742.73;102103;1299;75400;-24
2023/01/08 03:20:00;;;;;;;7.00;3.90;;;;;;;-3.28;80.35;99741.10;102310;1299;75924;-24
2023/01/08 03:22:27;;;;;;;11.70;5.70;;;;;;;-2.73;79.91;99745.41;102346;1299;74044;-24
2023/01/08 03:24:54;;;;;;;9.50;5.80;;;;;;;-2.55;78.69;99740.02;102336;1291;61594;-24
2023/01/08 03:27:23;;;;;;;10.40;6.10;;;;;;;-2.69;78.45;99738.55;102239;1298;61796;-24
2023/01/08 03:29:51;;;;;;;13.40;5.70;;;;;;;-2.92;78.71;99741.61;102102;1299;75600;-24
2023/01/08 03:32:19;;;;;;;17.50;9.30;;;;;;;-3.09;79.46;99742.20;102354;1298;75564;-24
2023/01/08 03:34:46;;;;;;;8.20;4.90;;;;;;;-3.26;80.02;99740.91;102234;1302;74949;-24
2023/01/08 03:37:18;;;;;;;12.10;5.80;;;;;;;-2.83;79.96;99741.99;101965;1304;61277;-24
2023/01/08 03:39:48;;;;;;;11.40;6.80;;;;;;;-2.32;79.03;99740.33;101977;1304;62881;-24
2023/01/08 03:42:16;;;;;;;8.50;5.10;;;;;;;-2.34;77.99;99738.48;102169;1299;74594;-24
2023/01/08 03:44:42;;;;;;;7.60;4.30;;;;;;;-2.51;77.82;99742.17;102155;1299;77007;-24
2023/01/08 03:47:09;;;;;;;8.60;5.90;;;;;;;-2.78;78.38;99735.96;102185;1294;74141;-25
2023/01/08 03:49:37;;;;;;;10.70;5.30;;;;;;;-3.06;79.23;99729.08;102010;1302;61208;-24
2023/01/08 03:52:04;;;;;;;14.60;7.10;;;;;;;-3.27;79.92;99728.70;102152;1299;61607;-24
2023/01/08 03:54:33;;;;;;;16.10;5.60;;;;;;;-2.96;80.33;99724.66;102347;1291;76056;-24
2023/01/08 03:57:00;;;;;;;11.60;5.30;;;;;;;-2.50;78.85;99731.77;101961;1304;76731;-24
2023/01/08 03:59:27;;;;;;;11.30;6.70;;;;;;;-2.45;78.02;99734.42;102326;1294;74196;-28
2023/01/08 04:01:54;;;;;;;12.00;5.20;;;;;;;-2.61;78.10;99738.41;102342;1299;61201;-27
2023/01/08 04:04:22;;;;;;;12.80;7.10;;;;;;;-2.86;78.44;99739.33;102324;1299;61670;-26
2023/01/08 04:06:51;;;;;;;14.60;7.40;;;;;;;-3.13;79.40;99742.93;102368;1285;75102;-26
2023/01/08 04:09:18;;;;;;;8.60;5.00;;;;;;;-3.32;80.45;99745.23;101960;1304;76537;-26
2023/01/08 04:11:45;;;;;;;7.70;5.60;;;;;;;-2.87;80.29;99746.14;102308;1294;73434;-26
2023/01/08 04:14:12;;;;;;;13.40;5.90;;;;;;;-2.46;78.84;99746.66;102288;1299;61056;-26
2023/01/08 04:16:39;;;;;;;12.20;5.60;;;;;;;-2.38;78.04;99746.21;102280;1299;61806;-26
2023/01/08 04:19:06;;;;;;;13.80;5.70;;;;;;;-2.55;78.19;99747.16;102246;1295;75543;-26
2023/01/08 04:21:33;;;;;;;9.90;4.90;;;;;;;-2.80;78.63;99745.86;102323;1298;76420;-26
2023/01/08 04:24:00;;;;;;;9.00;3.90;;;;;;;-3.04;79.35;99740.94;102338;1293;74185;-26
2023/01/08 04:26:27;;;;;;;6.00;4.20;;;;;;;-3.25;80.39;99744.46;102286;1298;62037;-26
2023/01/08 04:28:54;;;;;;;14.50;6.40;;;;;;;-3.08;80.79;99741.84;102140;1299;61789;-26
2023/01/08 04:31:21;;;;;;;11.80;4.90;;;;;;;-2.59;79.79;99742.12;102034;1294;76436;-26
2023/01/08 04:33:48;;;;;;;9.90;5.40;;;;;;;-2.50;78.72;99745.55;102285;1292;76414;-26
2023/01/08 04:36:15;;;;;;;12.10;6.10;;;;;;;-2.67;78.64;99741.06;102268;1299;73864;-26
2023/01/08 04:38:43;;;;;;;9.80;5.10;;;;;;;-3.01;79.33;99744.64;102322;1293;61260;-26
2023/01/08 04:41:10;;;;;;;10.60;5.00;;;;;;;-3.22;80.29;99749.17;102272;1299;61743;-26
2023/01/08 04:43:37;;;;;;;10.20;5.50;;;;;;;-3.36;80.95;99750.73;102037;1299;75199;-26
2023/01/08 04:46:06;;;;;;;9.90;4.40;;;;;;;-3.08;81.23;99760.02;102283;1294;76724;-26
2023/01/08 04:48:33;;;;;;;8.90;5.60;;;;;;;-2.44;80.18;99756.52;102180;1301;74322;-26
2023/01/08 04:51:01;;;;;;;14.80;6.80;;;;;;;-2.35;78.70;99754.14;102356;1299;61951;-26
2023/01/08 04:53:29;;;;;;;10.50;5.60;;;;;;;-2.56;78.55;99750.59;102217;1299;62911;-26
2023/01/08 04:55:56;;;;;;;7.80;4.70;;;;;;;-2.87;79.19;99746.13;102318;1298;76458;-26
2023/01/08 04:58:23;;;;;;;6.90;4.20;;;;;;;-3.14;79.95;99750.94;102085;1294;75604;-26
2023/01/08 05:00:50;;;;;;;15.10;6.50;;;;;;;-3.33;80.60;99751.19;102222;1289;73575;-26
2023/01/08 05:03:17;;;;;;;17.00;6.20;;;;;;;-3.09;81.13;99750.86;102267;1297;61130;-26
2023/01/08 05:05:44;;;;;;;10.20;4.90;;;;;;;-2.62;79.81;99743.54;102252;1302;61476;-26
2023/01/08 05:08:11;;;;;;;13.50;6.10;;;;;;;-2.59;79.02;99745.02;102234;1297;76691;-26
2023/01/08 05:10:38;;;;;;;11.90;6.80;;;;;;;-2.82;78.83;99739.27;102261;1299;76799;-26
2023/01/08 05:13:05;;;;;;;12.00;5.10;;;;;;;-3.09;79.69;99743.05;102085;1299;74171;-26
2023/01/08 05:15:32;;;;;;;10.20;5.70;;;;;;;-3.33;80.44;99742.88;102324;1299;61768;-26
2023/01/08 05:18:00;;;;;;;18.50;7.60;;;;;;;-3.38;81.25;99748.88;102281;1299;61759;-26
2023/01/08 05:20:27;;;;;;;8.20;4.40;;;;;;;-2.85;80.48;99742.88;102064;1297;75172;-26
2023/01/08 05:22:55;;;;;;;14.80;7.30;;;;;;;-2.56;78.98;99743.27;102352;1293;76486;-26
2023/01/08 05:25:22;;;;;;;14.60;5.50;;;;;;;-2.61;79.01;99739.95;102322;1291;74899;-26
2023/01/08 05:27:49;;;;;;;18.30;8.80;;;;;;;-2.83;79.05;99737.91;102188;1300;61211;-26
2023/01/08 05:30:16;;;;;;;14.60;8.80;;;;;;;-3.13;79.83;99738.35;102131;1294;62884;-26
2023/01/08 05:32:43;;;;;;;15.50;6.60;;;;;;;-3.39;80.88;99738.86;102234;1299;74215;-27
2023/01/08 05:35:10;;;;;;;13.50;6.20;;;;;;;-3.20;81.35;99737.08;102322;1295;75810;-29
2023/01/08 05:37:38;;;;;;;16.60;7.80;;;;;;;-2.72;80.13;99734.70;102318;1299;73828;-28
2023/01/08 05:40:05;;;;;;;5.80;3.90;;;;;;;-2.66;79.06;99735.95;102218;1299;61983;-27
2023/01/08 05:42:34;;;;;;;10.00;6.10;;;;;;;-2.83;79.31;99733.00;102421;1292;61914;-27
2023/01/08 05:45:02;;;;;;;13.10;5.30;;;;;;;-3.06;79.83;99734.68;102076;1302;76183;-27
2023/01/08 05:47:31;;;;;;;9.00;5.50;;;;;;;-3.24;80.29;99737.98;102111;1299;75561;-26
2023/01/08 05:49:58;;;;;;;10.20;5.50;;;;;;;-3.33;81.34;99735.55;102047;1297;73515;-26
2023/01/08 05:52:25;;;;;;;6.50;4.00;;;;;;;-2.82;80.61;99734.00;102317;1297;61803;-26
2023/01/08 05:54:52;;;;;;;15.80;6.30;;;;;;;-2.63;79.54;99731.46;102283;1299;61995;-26
2023/01/08 05:57:19;;;;;;;10.80;6.00;;;;;;;-2.75;79.30;99729.28;102234;1299;76155;-24
2023/01/08 05:59:46;;;;;;;6.60;4.20;;;;;;;-3.04;79.71;99734.66;102301;1299;75795;-24
2023/01/08 06:02:13;;;;;;;6.70;3.90;;;;;;;-3.28;80.68;99737.20;102323;1299;75284;-24
2023/01/08 06:04:41;;;;;;;9.30;5.70;;;;;;;-3.43;81.53;99744.36;102299;1294;63740;-24
2023/01/08 06:07:08;;;;;;;11.80;5.90;;;;;;;-3.10;81.15;99744.77;102302;1295;62597;-24
2023/01/08 06:09:35;;;;;;;11.50;6.30;;;;;;;-2.91;80.13;99749.92;102242;1301;76122;-24
2023/01/08 06:12:02;;;;;;;13.40;5.80;;;;;;;-2.96;80.13;99749.66;102245;1299;75660;-24
2023/01/08 06:14:29;;;;;;;13.60;7.50;;;;;;;-3.11;80.50;99748.53;102240;1301;73184;-24
2023/01/08 06:16:56;;;;;;;21.40;7.80;;;;;;;-3.38;81.33;99752.77;102327;1291;61163;-24
2023/01/08 06:19:23;;;;;;;10.20;5.20;;;;;;;-3.44;82.06;99755.06;102292;1297;61591;-25
2023/01/08 06:21:50;;;;;;;12.70;6.10;;;;;;;-2.88;81.53;99753.80;102257;1299;76597;-24
2023/01/08 06:24:17;;;;;;;13.00;5.90;;;;;;;-2.60;80.36;99755.40;102052;1301;76776;-24
2023/01/08 06:26:44;;;;;;;17.40;7.70;;;;;;;-2.64;79.75;99757.84;102188;1302;75205;-24
2023/01/08 06:29:11;;;;;;;15.20;7.60;;;;;;;-2.81;80.15;99764.58;102162;1297;62198;-24
2023/01/08 06:31:38;;;;;;;14.20;6.50;;;;;;;-3.04;80.48;99766.61;102304;1283;63091;-24
2023/01/08 06:34:05;;;;;;;12.80;5.80;;;;;;;-3.28;80.88;99767.09;102265;1299;76455;-24
2023/01/08 06:36:32;;;;;;;9.30;5.30;;;;;;;-3.32;81.75;99760.69;102030;1294;75834;-24
2023/01/08 06:38:59;;;;;;;11.00;5.10;;;;;;;-2.87;81.19;99762.10;102173;1294;75014;-24
2023/01/08 06:41:26;;;;;;;9.90;5.10;;;;;;;-2.72;80.37;99763.08;102278;1299;61224;-24
2023/01/08 06:43:53;;;;;;;10.70;6.60;;;;;;;-2.77;80.04;99754.30;102239;1297;61077;-24
2023/01/08 06:46:20;;;;;;;11.30;6.00;;;;;;;-3.04;80.65;99754.20;102308;1297;76428;-25
2023/01/08 06:48:47;;;;;;;11.70;4.90;;;;;;;-3.30;81.36;99750.14;102118;1294;74871;-24
2023/01/08 06:51:14;;;;;;;11.60;6.80;;;;;;;-3.27;82.09;99754.52;102238;1298;74184;-25
2023/01/08 06:53:41;;;;;;;9.60;5.40;;;;;;;-2.85;81.06;99753.58;102294;1299;61788;-24
2023/01/08 06:56:09;;;;;;;10.60;5.50;;;;;;;-2.76;80.34;99752.27;102290;1302;62872;-24
2023/01/08 06:58:37;;;;;;;10.50;6.40;;;;;;;-2.91;80.48;99755.19;102343;1297;76241;-25
2023/01/08 07:01:04;;;;;;;12.30;5.70;;;;;;;-3.16;80.91;99751.31;102324;1292;76381;-25
2023/01/08 07:03:31;;;;;;;12.00;6.20;;;;;;;-3.42;81.54;99749.77;102263;1299;75118;-24
2023/01/08 07:06:01;;;;;;;7.60;4.50;;;;;;;-3.24;82.13;99745.47;102100;1301;61046;-24
2023/01/08 07:08:28;;;;;;;12.60;6.30;;;;;;;-2.91;81.34;99739.56;102187;1293;61638;-24
2023/01/08 07:10:55;;;;;;;6.60;5.00;;;;;;;-2.94;80.78;99742.16;102332;1299;76412;-24
2023/01/08 07:13:23;;;;;;;11.50;4.90;;;;;;;-3.11;81.05;99749.54;102124;1302;76698;-24
2023/01/08 07:15:50;;;;;;;7.60;4.80;;;;;;;-3.31;81.55;99751.84;102266;1299;74265;-25
2023/01/08 07:18:17;;;;;;;5.20;3.40;;;;;;;-3.33;82.00;99751.70;102317;1299;62466;-29
2023/01/08 07:20:44;;;;;;;6.00;3.60;;;;;;;-2.88;81.12;99752.93;102377;1299;61713;-28
2023/01/08 07:23:11;;;;;;;8.50;4.10;;;;;;;-2.73;80.26;99752.21;102246;1302;74855;-25
2023/01/08 07:25:39;;;;;;;7.70;4.50;;;;;;;-2.81;79.64;99756.40;102162;1300;77314;-25
2023/01/08 07:28:10;;;;;;;7.80;4.30;;;;;;;-3.03;80.05;99758.59;102115;1301;75112;-25
2023/01/08 07:30:37;;;;;;;7.40;4.10;;;;;;;-3.21;80.33;99756.47;102078;1302;61771;-25
2023/01/08 07:33:04;;;;;;;7.00;3.10;;;;;;;-3.17;80.91;99755.58;102289;1299;62703;-25
2023/01/08 07:35:31;;;;;;;7.50;3.40;;;;;;;-2.61;80.09;99758.30;102153;1299;74125;-25
2023/01/08 07:37:58;;;;;;;8.90;4.30;;;;;;;-2.39;78.94;99759.98;102277;1295;75829;-25
2023/01/08 07:40:25;;;;;;;14.80;5.50;;;;;;;-2.49;79.18;99758.96;102284;1298;74147;-25
2023/01/08 07:42:58;;;;;;;8.20;3.90;;;;;;;-2.68;79.38;99747.21;102251;1300;61158;-25
2023/01/08 07:45:26;;;;;;;5.40;3.30;;;;;;;-2.97;79.56;99743.73;102118;1302;62568;-25
2023/01/08 07:47:54;;;;;;;5.70;3.70;;;;;;;-3.04;80.20;99744.17;102261;1302;76346;-25
2023/01/08 07:50:21;;;;;;;6.80;4.00;;;;;;;-2.65;79.45;99741.38;102251;1293;76558;-25
2023/01/08 07:52:48;;;;;;;8.50;4.60;;;;;;;-2.48;78.60;99746.20;102310;1296;74912;-25
2023/01/08 07:55:16;;;;;;;6.10;3.40;;;;;;;-2.59;78.59;99744.16;102016;1296;61707;-25
2023/01/08 07:57:43;;;;;;;7.90;4.10;;;;;;;-2.77;79.03;99745.83;102283;1302;62761;-25
2023/01/08 08:00:10;;;;;;;4.90;3.20;;;;;;;-2.98;80.00;99749.86;102330;1299;76417;-25
2023/01/08 08:02:38;;;;;;;5.40;3.20;;;;;;;-2.94;80.44;99743.52;102334;1283;75561;-25
2023/01/08 08:05:06;;;;;;;9.60;3.60;;;;;;;-2.56;79.52;99748.20;102275;1299;75079;-25
2023/01/08 08:07:33;;;;;;;5.00;3.30;;;;;;;-2.45;78.76;99750.73;101117;1300;1426626;-25
2023/01/08 08:10:01;;;;;;;5.20;3.30;;;;;;;-2.57;78.55;99749.56;102081;1299;61519;-25
2023/01/08 08:12:28;;;;;;;7.80;3.90;;;;;;;-2.77;79.05;99757.20;101983;1304;76395;-25
2023/01/08 08:14:55;;;;;;;5.40;3.50;;;;;;;-2.93;79.41;99764.40;102250;1299;76711;-24
2023/01/08 08:17:23;;;;;;;6.20;3.10;;;;;;;-2.94;80.04;99757.79;102198;1302;75359;-25
2023/01/08 08:19:50;;;;;;;5.60;3.30;;;;;;;-2.45;78.79;99743.95;102375;1302;61089;-25
2023/01/08 08:22:17;;;;;;;5.40;3.60;;;;;;;-2.10;77.64;99745.02;102312;1294;61197;-25
2023/01/08 08:24:44;;;;;;;4.60;3.00;;;;;;;-2.21;76.74;99745.91;102244;1302;76358;-25
2023/01/08 08:27:11;;;;;;;5.00;3.40;;;;;;;-2.39;77.30;99744.52;102311;1299;75594;-25
2023/01/08 08:29:38;;;;;;;8.40;3.40;;;;;;;-2.58;78.01;99745.00;102223;1294;75357;-25
2023/01/08 08:32:06;;;;;;;2.90;2.60;;;;;;;-2.78;78.60;99743.28;102245;1297;61155;-25
2023/01/08 08:34:34;;;;;;;7.50;4.10;;;;;;;-2.63;79.38;99739.98;102339;1299;61099;-25
2023/01/08 08:37:01;;;;;;;6.70;3.40;;;;;;;-2.17;78.16;99735.64;102209;1292;76262;-25
2023/01/08 08:39:28;;;;;;;5.50;3.00;;;;;;;-2.07;77.54;99739.88;102298;1293;76755;-25
2023/01/08 08:41:55;;;;;;;8.10;3.40;;;;;;;-2.18;77.52;99738.20;102301;1302;75090;-25
2023/01/08 08:44:22;;;;;;;4.80;2.70;;;;;;;-2.35;78.04;99732.20;102265;1302;61720;-25
2023/01/08 08:46:49;;;;;;;7.30;3.90;;;;;;;-2.57;78.63;99737.84;102268;1302;62580;-25
2023/01/08 08:49:16;;;;;;;6.30;3.80;;;;;;;-2.61;79.21;99741.30;102290;1297;76441;-25
2023/01/08 08:51:43;;;;;;;4.90;3.40;;;;;;;-2.15;78.62;99741.88;102299;1302;77300;-25
2023/01/08 08:54:10;;;;;;;4.70;2.70;;;;;;;-1.89;77.60;99731.88;102288;1298;73796;-28
2023/01/08 08:56:37;;;;;;;8.90;4.10;;;;;;;-1.92;77.05;99734.14;102342;1299;61278;-27
2023/01/08 08:59:05;;;;;;;3.90;2.70;;;;;;;-2.20;76.86;99733.81;102345;1297;62804;-27
2023/01/08 09:01:32;;;;;;;5.50;2.90;;;;;;;-2.41;77.86;99734.69;102304;1298;75494;-27
2023/01/08 09:03:59;;;;;;;5.40;3.80;;;;;;;-2.61;78.37;99735.52;102086;1301;75770;-25
2023/01/08 09:06:26;;;;;;;4.40;2.40;;;;;;;-2.36;77.94;99734.61;102298;1299;74004;-24
2023/01/08 09:08:56;;;;;;;5.80;3.60;;;;;;;-1.92;77.00;99735.52;102264;1300;62261;-24
2023/01/08 09:11:24;;;;;;;4.80;3.00;;;;;;;-1.88;76.10;99731.02;102323;1302;61733;-24
2023/01/08 09:13:50;;;;;;;6.40;3.90;;;;;;;-2.00;76.24;99730.40;102323;1297;75402;-24
2023/01/08 09:16:17;;;;;;;7.30;3.20;;;;;;;-2.21;77.05;99722.61;102305;1299;75542;-24
2023/01/08 09:18:45;;;;;;;3.20;2.30;;;;;;;-2.47;77.57;99720.16;102324;1297;75064;-24
2023/01/08 09:21:12;;;;;;;4.50;2.90;;;;;;;-2.50;78.57;99721.92;102185;1301;62648;-24
2023/01/08 09:23:39;;;;;;;5.30;3.30;;;;;;;-2.04;77.37;99717.19;102358;1293;62794;-25
2023/01/08 09:26:06;;;;;;;6.20;3.90;;;;;;;-1.83;76.13;99718.83;102305;1299;76714;-24
2023/01/08 09:28:34;;;;;;;7.10;4.00;;;;;;;-1.90;76.13;99712.99;102312;1286;75752;-24
2023/01/08 09:31:01;;;;;;;8.10;4.60;;;;;;;-2.07;76.51;99723.38;102333;1302;75315;-25
2023/01/08 09:33:29;;;;;;;5.60;3.30;;;;;;;-2.30;77.43;99722.92;102145;1299;61110;-25
2023/01/08 09:35:56;;;;;;;5.00;2.90;;;;;;;-2.55;78.27;99731.67;102398;1302;62823;-24
2023/01/08 09:38:23;;;;;;;5.30;3.10;;;;;;;-2.28;78.43;99725.95;102312;1301;76427;-24
2023/01/08 09:41:07;;;;;;;5.80;3.10;;;;;;;-1.74;77.12;99721.20;102353;1296;76641;-25
2023/01/08 09:43:35;;;;;;;7.40;3.40;;;;;;;-1.68;76.24;99724.98;102037;1302;75147;-25
2023/01/08 09:46:05;;;;;;;7.90;3.40;;;;;;;-1.85;76.76;99721.25;102373;1298;61119;-24
2023/01/08 09:48:37;;;;;;;7.20;4.60;;;;;;;-2.08;76.96;99721.52;102107;1299;62133;-25
2023/01/08 09:51:12;;;;;;;5.10;3.00;;;;;;;-2.34;78.41;99714.50;101964;1303;76477;-24
2023/01/08 09:53:39;;;;;;;5.10;3.60;;;;;;;-2.55;79.07;99712.32;102323;1294;76524;-24
2023/01/08 09:56:13;;;;;;;5.70;3.80;;;;;;;-2.32;79.25;99697.28;102305;1297;75238;-25
2023/01/08 09:58:43;;;;;;;11.60;5.10;;;;;;;-1.99;78.10;99697.85;102155;1299;61091;-25
2023/01/08 10:01:12;;;;;;;7.10;4.50;;;;;;;-2.05;77.95;99689.64;101932;1306;61523;-25
2023/01/08 10:03:46;;;;;;;9.10;3.80;;;;;;;-2.16;78.25;99699.19;102033;1304;75179;-25
2023/01/08 10:06:14;;;;;;;4.90;2.50;;;;;;;-2.33;78.50;99700.88;102025;1301;76823;-25
2023/01/08 10:08:41;;;;;;;3.10;2.10;;;;;;;-2.53;78.79;99695.10;102023;1302;74348;-25
2023/01/08 10:11:08;;;;;;;7.00;4.30;;;;;;;-2.32;79.00;99702.39;102304;1299;61179;-25
2023/01/08 10:13:38;;;;;;;8.70;3.40;;;;;;;-1.97;77.56;99696.80;102098;1300;62894;-25
2023/01/08 10:16:10;;;;;;;4.90;3.10;;;;;;;-1.93;76.89;99696.90;102155;1300;75356;-25
2023/01/08 10:18:39;;;;;;;4.90;3.30;;;;;;;-2.18;77.19;99693.29;102216;1302;76737;-25
2023/01/08 10:21:11;;;;;;;5.80;3.50;;;;;;;-2.48;78.28;99700.10;102313;1305;74934;-25
2023/01/08 10:23:51;;;;;;;5.40;4.30;;;;;;;-2.74;79.05;99703.96;102056;1303;61114;-25
2023/01/08 10:26:28;;;;;;;10.00;5.30;;;;;;;-2.53;78.90;99701.57;102065;1299;62967;-25
2023/01/08 10:29:25;;;;;;;7.50;5.30;;;;;;;-2.29;77.96;99708.63;102062;1304;75454;-25
2023/01/08 10:31:57;;;;;;;7.00;3.60;;;;;;;-2.39;77.58;99704.21;102102;1300;76567;-25
2023/01/08 10:34:32;;;;;;;5.40;3.10;;;;;;;-2.64;78.23;99701.08;101977;1305;75166;-27
2023/01/08 10:36:59;;;;;;;3.70;2.40;;;;;;;-2.85;79.15;99702.93;102336;1301;61162;-28
2023/01/08 10:39:27;;;;;;;11.70;4.90;;;;;;;-2.93;79.57;99697.63;102295;1302;62666;-28
2023/01/08 10:41:56;;;;;;;7.50;4.20;;;;;;;-2.60;79.13;99687.91;102151;1300;75424;-27
2023/01/08 10:44:23;;;;;;;6.30;3.70;;;;;;;-2.35;78.24;99688.48;102143;1301;76999;-28
2023/01/08 10:46:56;;;;;;;6.30;4.50;;;;;;;-2.41;77.55;99685.36;102351;1296;74151;-29
2023/01/08 10:49:52;;;;;;;8.60;4.90;;;;;;;-2.69;78.13;99677.34;101995;1299;61174;-26
2023/01/08 10:52:36;;;;;;;8.50;4.50;;;;;;;-3.01;79.20;99678.20;102239;1299;62854;-26
2023/01/08 10:55:22;;;;;;;;;;;;;;;-2.92;80.07;99678.75;102333;1302;76409;-25
2023/01/08 10:57:53;;;;;;;10.50;6.80;;;;;;;-2.39;78.25;99668.15;102382;1299;76767;-25
2023/01/08 11:00:22;;;;;;;5.40;4.10;;;;;;;-2.48;77.95;99661.00;102271;1300;74785;-25
2023/01/08 11:02:49;;;;;;;10.50;5.40;;;;;;;-2.63;78.27;99659.76;102334;1298;61049;-25
2023/01/08 11:05:16;;;;;;;6.50;4.60;;;;;;;-2.91;79.01;99656.46;102288;1298;61674;-25
2023/01/08 11:07:47;;;;;;;7.70;4.40;;;;;;;-3.14;79.69;99656.85;102348;1297;75985;-25
2023/01/08 11:10:23;;;;;;;5.90;3.70;;;;;;;-3.10;80.39;99655.92;102199;1294;76054;-25
2023/01/08 11:13:14;;;;;;;9.30;6.00;;;;;;;-2.62;79.27;99650.89;102101;1297;75437;-25
2023/01/08 11:15:41;;;;;;;8.50;4.50;;;;;;;-2.50;78.05;99657.31;102364;1298;61181;-25
2023/01/08 11:18:21;;;;;;;8.80;4.30;;;;;;;-2.57;78.16;99657.08;102150;1302;62376;-25
2023/01/08 11:20:49;;;;;;;9.10;5.60;;;;;;;-2.77;78.31;99658.12;102095;1301;76135;-25
2023/01/08 11:23:21;;;;;;;7.40;5.40;;;;;;;-3.02;78.89;99655.61;102232;1302;75580;-25
2023/01/08 11:26:07;;;;;;;8.40;3.80;;;;;;;-3.06;79.70;99650.94;102358;1302;75381;-25
2023/01/08 11:28:57;;;;;;;10.20;6.00;;;;;;;-2.65;78.35;99637.83;102251;1299;61576;-25
2023/01/08 11:31:39;;;;;;;10.70;4.90;;;;;;;-2.73;77.81;99641.20;102322;1298;61763;-25